.
WxDataArchive / Data Records for 2012-10-02
2012-10-01 October 2012 2012-10-03

Data Records for Tuesday, 02 October 2012

Time	Temp	Chill	HIndex	Humid	Dewpt	 Wind 	HiWind	WindDir	Rain 	Barom 
-----	----	-----	------	-----	-----	------	------	-------	-----	----- 
00:00	55.4	55.4	55.4	87	51.6	2	5	90	0.00	29.801 
00:05	55.4	55.4	55.4	87	51.6	2	5	90	0.00	29.801 
00:10	55.3	55.3	55.3	88	51.8	2	3	68	0.00	29.801 
00:15	55.3	55.3	55.3	88	51.8	2	5	90	0.00	29.787 
00:20	55.3	55.3	55.3	88	51.8	2	5	90	0.00	29.787 
00:25	55.1	55.1	55.1	88	51.6	2	5	90	0.00	29.787 
00:30	55.1	55.1	55.1	89	51.9	2	4	90	0.00	29.776 
00:35	55.1	55.1	55.1	89	51.9	3	6	90	0.00	29.776 
00:40	55.1	55.1	55.1	89	51.9	3	7	90	0.00	29.776 
00:45	55.1	55.1	55.1	89	51.9	2	6	90	0.00	29.776 
00:50	55.0	55.0	55.0	89	51.8	2	5	90	0.00	29.776 
00:55	55.0	55.0	55.0	89	51.8	1	4	90	0.00	29.776 
01:00	55.0	55.0	55.0	89	51.8	2	7	68	0.00	29.775 
01:05	55.0	55.0	55.0	89	51.8	2	5	90	0.00	29.775 
01:10	55.0	55.0	55.0	89	51.8	3	7	68	0.00	29.775 
01:15	55.0	55.0	55.0	89	51.8	2	5	45	0.00	29.770 
01:20	55.0	55.0	55.0	89	51.8	2	5	90	0.00	29.770 
01:25	55.0	55.0	55.0	90	52.1	2	6	112	0.00	29.770 
01:30	55.0	55.0	55.0	90	52.1	2	5	45	0.00	29.767 
01:35	54.8	54.8	54.8	90	51.9	2	6	90	0.00	29.767 
01:40	54.8	54.8	54.8	89	51.6	3	7	90	0.00	29.767 
01:45	54.8	54.8	54.8	89	51.6	4	9	90	0.00	29.767 
01:50	54.8	54.8	54.8	89	51.6	2	6	90	0.00	29.767 
01:55	54.8	54.8	54.8	89	51.6	2	7	90	0.00	29.767 
02:00	54.8	54.8	54.8	89	51.6	3	6	90	0.00	29.762 
02:05	54.8	54.8	54.8	89	51.6	2	6	90	0.00	29.762 
02:10	54.8	54.8	54.8	89	51.6	1	6	112	0.00	29.762 
02:15	54.8	54.8	54.8	89	51.6	1	3	112	0.00	29.760 
02:20	55.0	55.0	55.0	89	51.8	2	5	112	0.00	29.760 
02:25	55.0	55.0	55.0	89	51.8	1	3	90	0.00	29.760 
02:30	55.0	55.0	55.0	89	51.8	2	6	112	0.00	29.758 
02:35	55.1	55.1	55.1	89	51.9	2	6	90	0.00	29.758 
02:40	55.1	55.1	55.1	89	51.9	2	6	90	0.00	29.758 
02:45	55.1	55.1	55.1	89	51.9	1	3	68	0.00	29.768 
02:50	55.1	55.1	55.1	89	51.9	0	3	68	0.00	29.768 
02:55	55.1	55.1	55.1	89	51.9	0	3	68	0.00	29.768 
03:00	55.1	55.1	55.1	89	51.9	0	2	68	0.00	29.777 
03:05	55.1	55.1	55.1	90	52.2	0	2	68	0.02	29.777 
03:10	55.0	55.0	55.0	90	52.1	0	3	112	0.01	29.777 
03:15	54.8	54.8	54.8	90	51.9	0	2	112	0.01	29.776 
03:20	54.5	54.5	54.5	90	51.6	1	4	112	0.02	29.776 
03:25	54.4	54.4	54.4	91	51.8	1	4	112	0.01	29.776 
03:30	53.9	53.9	53.9	90	51.0	0	2	112	0.00	29.773 
03:35	53.8	53.8	53.8	90	50.9	0	2	112	0.01	29.773 
03:40	53.6	53.6	53.6	91	51.0	0	2	112	0.00	29.773 
03:45	53.8	53.8	53.8	91	51.2	0	1	112	0.00	29.768 
03:50	53.6	53.6	53.6	91	51.0	0	0	---	0.01	29.768 
03:55	53.6	53.6	53.6	91	51.0	0	0	---	0.00	29.768 
04:00	53.6	53.6	53.6	92	51.3	0	1	112	0.00	29.759 
04:05	53.6	53.6	53.6	92	51.3	0	2	112	0.00	29.759 
04:10	53.8	53.8	53.8	92	51.5	0	1	112	0.01	29.759 
04:15	53.8	53.8	53.8	92	51.5	1	4	112	0.01	29.768 
04:20	53.8	53.8	53.8	92	51.5	0	3	112	0.00	29.768 
04:25	53.8	53.8	53.8	92	51.5	0	3	135	0.00	29.768 
04:30	53.8	53.8	53.8	92	51.5	0	3	135	0.00	29.767 
04:35	53.8	53.8	53.8	92	51.5	1	3	135	0.00	29.767 
04:40	53.8	53.8	53.8	92	51.5	1	4	90	0.00	29.767 
04:45	53.6	53.6	53.6	92	51.3	1	3	112	0.00	29.772 
04:50	53.6	53.6	53.6	92	51.3	1	3	90	0.00	29.772 
04:55	53.6	53.6	53.6	92	51.3	1	4	90	0.00	29.772 
05:00	53.6	53.6	53.6	92	51.3	1	3	90	0.01	29.781 
05:05	53.5	53.5	53.5	92	51.2	1	4	90	0.00	29.781 
05:10	53.5	53.5	53.5	93	51.5	1	4	90	0.00	29.781 
05:15	53.6	53.6	53.6	93	51.6	1	3	90	0.00	29.778 
05:20	53.5	53.5	53.5	93	51.5	1	3	90	0.01	29.778 
05:25	53.5	53.5	53.5	93	51.5	0	3	90	0.01	29.778 
05:30	53.5	53.5	53.5	93	51.5	1	6	90	0.01	29.775 
05:35	53.5	53.5	53.5	93	51.5	2	6	90	0.00	29.775 
05:40	53.5	53.5	53.5	93	51.5	2	6	90	0.00	29.775 
05:45	53.5	53.5	53.5	94	51.8	1	2	90	0.00	29.761 
05:50	53.5	53.5	53.5	94	51.8	3	6	112	0.00	29.761 
05:55	53.5	53.5	53.5	94	51.8	3	11	90	0.00	29.761 
06:00	53.5	53.5	53.5	94	51.8	3	9	90	0.00	29.770 
06:05	53.5	53.5	53.5	94	51.8	2	8	90	0.01	29.770 
06:10	53.5	53.5	53.5	94	51.8	2	7	45	0.00	29.770 
06:15	53.5	53.5	53.5	94	51.8	3	6	90	0.00	29.770 
06:20	53.5	53.5	53.5	94	51.8	2	5	90	0.00	29.770 
06:25	53.5	53.5	53.5	94	51.8	2	9	90	0.00	29.770 
06:30	53.5	53.5	53.5	94	51.8	2	6	90	0.00	29.770 
06:35	53.5	53.5	53.5	94	51.8	1	4	112	0.00	29.770 
06:40	53.5	53.5	53.5	94	51.8	2	6	90	0.00	29.770 
06:45	53.6	53.6	53.6	94	51.9	1	6	90	0.00	29.776 
06:50	53.6	53.6	53.6	94	51.9	1	4	90	0.00	29.776 
06:55	53.8	53.8	53.8	94	52.1	2	6	90	0.00	29.776 
07:00	53.8	53.8	53.8	94	52.1	2	6	90	0.00	29.783 
07:05	53.8	53.8	53.8	94	52.1	2	6	112	0.00	29.783 
07:10	53.8	53.8	53.8	94	52.1	2	7	90	0.00	29.783 
07:15	53.9	53.9	53.9	94	52.2	1	4	68	0.00	29.786 
07:20	53.8	53.8	53.8	94	52.1	2	5	90	0.00	29.786 
07:25	53.8	53.8	53.8	94	52.1	3	6	90	0.00	29.786 
07:30	53.6	53.6	53.6	94	51.9	3	9	112	0.00	29.788 
07:35	53.5	53.5	53.5	94	51.8	3	9	112	0.00	29.788 
07:40	53.5	53.5	53.5	94	51.8	3	7	90	0.00	29.788 
07:45	53.5	53.5	53.5	94	51.8	2	6	90	0.00	29.791 
07:50	53.5	53.5	53.5	94	51.8	1	3	90	0.00	29.791 
07:55	53.5	53.5	53.5	94	51.8	1	5	90	0.00	29.791 
08:00	53.5	53.5	53.5	94	51.8	3	7	90	0.00	29.788 
08:05	53.5	53.5	53.5	94	51.8	2	11	135	0.00	29.788 
08:10	53.5	53.5	53.5	94	51.8	1	6	112	0.00	29.788 
08:15	53.5	53.5	53.5	94	51.8	1	5	112	0.00	29.798 
08:20	53.5	53.5	53.5	94	51.8	1	6	90	0.00	29.798 
08:25	53.5	53.5	53.5	94	51.8	1	4	90	0.00	29.798 
08:30	53.5	53.5	53.5	94	51.8	0	2	90	0.00	29.800 
08:35	53.5	53.5	53.5	94	51.8	0	2	90	0.00	29.800 
08:40	53.6	53.6	53.6	94	51.9	1	4	68	0.00	29.800 
08:45	53.6	53.6	53.6	94	51.9	1	4	135	0.00	29.803 
08:50	53.6	53.6	53.6	94	51.9	1	5	112	0.00	29.803 
08:55	53.6	53.6	53.6	94	51.9	1	3	112	0.00	29.803 
09:00	53.8	53.8	53.8	94	52.1	1	4	112	0.00	29.804 
09:05	53.8	53.8	53.8	93	51.8	1	6	90	0.00	29.804 
09:10	53.8	53.8	53.8	93	51.8	1	6	90	0.00	29.804 
09:15	53.8	53.8	53.8	93	51.8	1	4	90	0.00	29.812 
09:20	53.8	53.8	53.8	93	51.8	0	3	90	0.00	29.812 
09:25	53.9	53.9	53.9	92	51.6	1	4	90	0.00	29.812 
09:30	53.9	53.9	53.9	92	51.6	1	6	90	0.00	29.809 
09:35	53.9	53.9	53.9	92	51.6	0	3	90	0.00	29.809 
09:40	53.9	53.9	53.9	92	51.6	1	3	90	0.00	29.809 
09:45	54.1	54.1	54.1	92	51.8	1	4	90	0.00	29.814 
09:50	54.1	54.1	54.1	92	51.8	1	5	90	0.00	29.814 
09:55	54.4	54.4	54.4	92	52.1	1	4	135	0.00	29.814 
10:00	54.4	54.4	54.4	92	52.1	2	9	112	0.00	29.807 
10:05	54.7	54.7	54.7	92	52.4	1	4	112	0.00	29.807 
10:10	54.7	54.7	54.7	92	52.4	3	7	90	0.00	29.807 
10:15	54.8	54.8	54.8	91	52.2	3	7	90	0.00	29.810 
10:20	54.8	54.8	54.8	91	52.2	2	6	112	0.00	29.810 
10:25	55.1	55.1	55.1	91	52.5	1	3	112	0.00	29.810 
10:30	55.3	55.3	55.3	91	52.7	1	5	112	0.00	29.809 
10:35	55.4	55.4	55.4	91	52.8	2	7	112	0.00	29.809 
10:40	55.6	55.6	55.6	90	52.7	3	9	90	0.00	29.809 
10:45	55.6	55.6	55.6	90	52.7	2	6	45	0.00	29.816 
10:50	55.7	55.7	55.7	90	52.8	3	6	90	0.00	29.816 
10:55	55.7	55.7	55.7	90	52.8	3	9	90	0.00	29.816 
11:00	55.7	55.7	55.7	89	52.5	2	7	112	0.00	29.820 
11:05	55.9	55.9	55.9	89	52.7	2	6	90	0.00	29.820 
11:10	55.7	55.7	55.7	90	52.8	3	12	90	0.00	29.820 
11:15	55.9	55.9	55.9	90	53.0	1	5	68	0.00	29.822 
11:20	55.7	55.7	55.7	91	53.1	1	5	112	0.00	29.822 
11:25	55.9	55.9	55.9	91	53.3	1	4	112	0.00	29.822 
11:30	55.9	55.9	55.9	92	53.6	1	4	135	0.00	29.821 
11:35	55.9	55.9	55.9	92	53.6	2	5	90	0.00	29.821 
11:40	55.9	55.9	55.9	92	53.6	1	3	68	0.00	29.821 
11:45	55.9	55.9	55.9	92	53.6	2	11	90	0.00	29.814 
11:50	56.0	56.0	56.0	93	54.0	1	5	90	0.00	29.814 
11:55	56.0	56.0	56.0	93	54.0	1	5	90	0.00	29.814 
12:00	56.0	56.0	56.0	93	54.0	2	5	112	0.00	29.819 
12:05	56.0	56.0	56.0	93	54.0	1	5	90	0.00	29.819 
12:10	56.0	56.0	56.0	93	54.0	1	4	90	0.00	29.819 
12:15	56.0	56.0	56.0	93	54.0	2	4	90	0.00	29.816 
12:20	56.0	56.0	56.0	93	54.0	0	3	90	0.00	29.816 
12:25	56.0	56.0	56.0	94	54.3	1	5	135	0.00	29.816 
12:30	56.0	56.0	56.0	93	54.0	2	9	112	0.00	29.817 
12:35	56.0	56.0	56.0	94	54.3	4	7	90	0.00	29.817 
12:40	56.2	56.2	56.2	94	54.5	1	6	90	0.00	29.817 
12:45	56.3	56.3	56.3	94	54.6	1	5	90	0.00	29.816 
12:50	56.5	56.5	56.5	94	54.8	0	2	90	0.00	29.816 
12:55	56.5	56.5	56.5	93	54.5	1	4	90	0.00	29.816 
13:00	56.5	56.5	56.5	93	54.5	2	10	112	0.00	29.819 
13:05	56.5	56.5	56.5	93	54.5	2	5	135	0.00	29.819 
13:10	56.6	56.6	56.6	93	54.6	1	5	90	0.00	29.819 
13:15	56.6	56.6	56.6	93	54.6	1	4	90	0.00	29.821 
13:20	56.7	56.7	56.7	93	54.7	0	2	90	0.00	29.821 
13:25	56.7	56.7	56.7	93	54.7	1	3	90	0.00	29.821 
13:30	56.7	56.7	56.7	93	54.7	2	6	68	0.00	29.822 
13:35	56.9	56.9	56.9	92	54.6	1	5	90	0.00	29.822 
13:40	57.0	57.0	57.0	92	54.7	1	5	90	0.00	29.822 
13:45	57.0	57.0	57.0	92	54.7	2	5	90	0.00	29.822 
13:50	57.2	57.2	57.2	92	54.9	1	6	90	0.00	29.822 
13:55	57.3	57.3	57.3	92	55.0	0	2	68	0.00	29.822 
14:00	57.5	57.5	57.5	92	55.2	0	2	68	0.00	29.819 
14:05	57.8	57.8	57.8	92	55.5	1	4	90	0.00	29.819 
14:10	58.0	58.0	58.0	91	55.4	1	4	90	0.00	29.819 
14:15	58.1	58.1	58.1	91	55.5	1	4	90	0.00	29.811 
14:20	58.4	58.4	58.4	91	55.8	1	4	112	0.00	29.811 
14:25	58.7	58.7	58.7	91	56.1	1	4	112	0.00	29.811 
14:30	58.9	58.9	58.9	90	56.0	1	11	90	0.00	29.797 
14:35	58.9	58.9	58.9	89	55.7	3	7	90	0.00	29.797 
14:40	59.0	59.0	59.0	89	55.8	2	9	90	0.00	29.797 
14:45	59.0	59.0	59.0	89	55.8	2	6	112	0.00	29.800 
14:50	59.2	59.2	59.2	88	55.6	1	4	68	0.00	29.800 
14:55	59.5	59.5	59.5	89	56.3	1	5	112	0.00	29.800 
15:00	59.5	59.5	59.5	88	55.9	2	9	90	0.00	29.802 
15:05	59.6	59.6	59.6	88	56.0	2	5	90	0.00	29.802 
15:10	59.6	59.6	59.6	87	55.7	3	10	90	0.00	29.802 
15:15	59.6	59.6	59.6	87	55.7	1	5	68	0.00	29.804 
15:20	59.8	59.8	59.8	88	56.2	1	5	90	0.00	29.804 
15:25	59.9	59.9	59.9	87	56.0	2	9	90	0.00	29.804 
15:30	60.1	60.1	60.1	87	56.2	1	5	90	0.00	29.803 
15:35	60.2	60.2	60.2	87	56.3	2	6	90	0.00	29.803 
15:40	60.4	60.4	60.4	86	56.2	2	7	90	0.00	29.803 
15:45	60.5	60.5	60.5	86	56.3	1	4	90	0.00	29.802 
15:50	60.7	60.7	60.7	86	56.5	2	6	112	0.00	29.802 
15:55	61.0	61.0	61.0	85	56.5	2	5	90	0.00	29.802 
16:00	61.2	61.2	61.2	85	56.6	1	4	112	0.00	29.801 
16:05	61.3	61.3	61.3	85	56.7	1	5	112	0.00	29.801 
16:10	61.3	61.3	61.3	84	56.4	1	3	112	0.00	29.801 
16:15	61.3	61.3	61.3	84	56.4	0	2	112	0.00	29.802 
16:20	61.5	61.5	61.5	84	56.6	1	4	68	0.00	29.802 
16:25	61.5	61.5	61.5	84	56.6	1	3	90	0.00	29.802 
16:30	61.5	61.5	61.5	84	56.6	2	5	90	0.00	29.806 
16:35	61.5	61.5	61.5	84	56.6	1	4	90	0.00	29.806 
16:40	61.6	61.6	61.6	84	56.7	1	3	90	0.00	29.806 
16:45	61.6	61.6	61.6	84	56.7	0	3	90	0.00	29.810 
16:50	61.8	61.8	61.8	84	56.9	0	5	112	0.00	29.810 
16:55	61.8	61.8	61.8	84	56.9	1	4	112	0.00	29.810 
17:00	61.8	61.8	61.8	84	56.9	0	3	112	0.00	29.810 
17:05	61.8	61.8	61.8	84	56.9	1	6	90	0.00	29.810 
17:10	61.8	61.8	61.8	84	56.9	2	6	90	0.00	29.810 
17:15	61.8	61.8	61.8	84	56.9	2	6	90	0.00	29.809 
17:20	62.0	62.0	62.0	84	57.1	1	4	90	0.00	29.809 
17:25	62.0	62.0	62.0	84	57.1	2	7	112	0.00	29.809 
17:30	62.0	62.0	62.0	84	57.1	1	4	90	0.00	29.809 
17:35	62.1	62.1	62.1	85	57.5	1	9	90	0.00	29.809 
17:40	62.1	62.1	62.1	84	57.2	1	7	112	0.00	29.809 
17:45	62.1	62.1	62.1	84	57.2	2	6	112	0.00	29.812 
17:50	62.1	62.1	62.1	84	57.2	2	5	112	0.00	29.812 
17:55	62.1	62.1	62.1	85	57.5	2	5	112	0.00	29.812 
18:00	62.1	62.1	62.1	85	57.5	1	3	90	0.01	29.817 
18:05	62.1	62.1	62.1	87	58.2	1	4	45	0.00	29.817 
18:10	62.0	62.0	62.0	88	58.4	1	4	90	0.00	29.817 
18:15	61.8	61.8	61.8	88	58.2	0	2	90	0.00	29.821 
18:20	61.6	61.6	61.6	89	58.3	0	2	90	0.00	29.821 
18:25	61.5	61.5	61.5	89	58.2	0	2	90	0.00	29.821 
18:30	61.3	61.3	61.3	90	58.3	0	3	90	0.00	29.831 
18:35	61.3	61.3	61.3	90	58.3	1	2	90	0.00	29.831 
18:40	61.2	61.2	61.2	91	58.5	1	3	90	0.00	29.831 
18:45	61.0	61.0	61.0	91	58.4	0	2	90	0.00	29.835 
18:50	61.0	61.0	61.0	91	58.4	0	2	90	0.00	29.835 
18:55	61.0	61.0	61.0	92	58.7	0	3	90	0.01	29.835 
19:00	60.9	60.9	60.9	92	58.6	0	2	90	0.00	29.837 
19:05	60.9	60.9	60.9	92	58.6	0	1	90	0.01	29.837 
19:10	60.9	60.9	60.9	92	58.6	0	1	90	0.00	29.837 
19:15	60.7	60.7	60.7	92	58.4	0	1	90	0.00	29.846 
19:20	60.7	60.7	60.7	93	58.7	0	0	---	0.01	29.846 
19:25	60.7	60.7	60.7	93	58.7	0	0	---	0.00	29.846 
19:30	60.7	60.7	60.7	93	58.7	0	1	90	0.00	29.848 
19:35	60.5	60.5	60.5	93	58.5	0	0	---	0.01	29.848 
19:40	60.5	60.5	60.5	93	58.5	0	1	90	0.00	29.848 
19:45	60.5	60.5	60.5	93	58.5	0	3	90	0.00	29.848 
19:50	60.5	60.5	60.5	94	58.8	0	2	90	0.01	29.848 
19:55	60.5	60.5	60.5	94	58.8	1	2	90	0.00	29.848 
20:00	60.5	60.5	60.5	94	58.8	2	6	90	0.00	29.835 
20:05	60.4	60.4	60.4	94	58.7	2	5	90	0.00	29.835 
20:10	60.4	60.4	60.4	94	58.7	2	5	112	0.00	29.835 
20:15	60.4	60.4	60.4	94	58.7	1	5	90	0.00	29.838 
20:20	60.2	60.2	60.2	95	58.8	1	5	112	0.00	29.838 
20:25	60.2	60.2	60.2	95	58.8	1	4	90	0.00	29.838 
20:30	60.2	60.2	60.2	95	58.8	2	4	90	0.00	29.847 
20:35	60.2	60.2	60.2	95	58.8	1	4	112	0.00	29.847 
20:40	60.2	60.2	60.2	95	58.8	1	3	112	0.00	29.847 
20:45	60.2	60.2	60.2	95	58.8	1	3	112	0.00	29.853 
20:50	60.2	60.2	60.2	95	58.8	1	5	112	0.00	29.853 
20:55	60.2	60.2	60.2	95	58.8	1	5	90	0.00	29.853 
21:00	60.2	60.2	60.2	95	58.8	2	4	90	0.00	29.852 
21:05	60.2	60.2	60.2	95	58.8	2	5	112	0.00	29.852 
21:10	60.2	60.2	60.2	95	58.8	1	4	90	0.00	29.852 
21:15	60.1	60.1	60.1	95	58.7	1	4	90	0.00	29.853 
21:20	60.1	60.1	60.1	95	58.7	2	4	90	0.00	29.853 
21:25	60.1	60.1	60.1	95	58.7	1	3	90	0.00	29.853 
21:30	60.1	60.1	60.1	95	58.7	1	3	90	0.00	29.861 
21:35	60.1	60.1	60.1	95	58.7	0	2	90	0.00	29.861 
21:40	59.9	59.9	59.9	95	58.5	0	1	90	0.00	29.861 
21:45	59.9	59.9	59.9	95	58.5	0	0	---	0.00	29.867 
21:50	59.9	59.9	59.9	95	58.5	0	1	90	0.00	29.867 
21:55	59.9	59.9	59.9	95	58.5	0	3	90	0.00	29.867 
22:00	59.9	59.9	59.9	95	58.5	0	3	90	0.00	29.873 
22:05	59.9	59.9	59.9	95	58.5	0	1	90	0.00	29.873 
22:10	59.9	59.9	59.9	95	58.5	0	1	90	0.00	29.873 
22:15	59.9	59.9	59.9	95	58.5	0	2	90	0.00	29.874 
22:20	60.1	60.1	60.1	95	58.7	0	1	90	0.00	29.874 
22:25	60.1	60.1	60.1	95	58.7	1	3	90	0.00	29.874 
22:30	60.1	60.1	60.1	95	58.7	0	2	90	0.00	29.878 
22:35	60.1	60.1	60.1	95	58.7	1	3	90	0.00	29.878 
22:40	60.1	60.1	60.1	95	58.7	0	3	90	0.00	29.878 
22:45	59.9	59.9	59.9	95	58.5	0	2	90	0.00	29.876 
22:50	59.9	59.9	59.9	95	58.5	0	1	90	0.00	29.876 
22:55	59.9	59.9	59.9	95	58.5	0	1	90	0.00	29.876 
23:00	59.9	59.9	59.9	95	58.5	0	0	---	0.00	29.876 
23:05	59.9	59.9	59.9	95	58.5	0	0	---	0.00	29.876 
23:10	59.9	59.9	59.9	95	58.5	0	0	---	0.00	29.876 
23:15	59.9	59.9	59.9	95	58.5	0	1	90	0.00	29.880 
23:20	59.9	59.9	59.9	95	58.5	0	1	90	0.00	29.880 
23:25	59.9	59.9	59.9	96	58.8	0	0	---	0.00	29.880 
23:30	59.9	59.9	59.9	95	58.5	0	0	---	0.00	29.879 
23:35	59.8	59.8	59.8	96	58.7	0	0	---	0.00	29.879 
23:40	59.8	59.8	59.8	96	58.7	0	0	---	0.00	29.879 
23:45	59.8	59.8	59.8	96	58.7	0	0	---	0.00	29.891 
23:50	59.8	59.8	59.8	95	58.4	0	0	---	0.00	29.891 
23:55	59.8	59.8	59.8	96	58.7	0	0	---	0.00	29.891 

CoCoRaHS
IN-AL-39
A2 Web Hosting
Creative Commons License
GoDaddy
search engine by freefind advanced

loaded 2018-11-21 00:40:23 • last modified 2010-11-18 10:43:29
Privacy PolicyDisclaimer
• wx.awcolley.com is powered by PmWiki v.2002016 •
• all content (unless otherwise noted) © 2018 A W Colley